createdAt,value
2022-08-26T10:49:13.170Z,45.94
2022-08-26T10:59:39.861Z,42.75
2022-08-26T11:09:47.738Z,38.70
2022-08-26T11:20:00.881Z,36.19
2022-08-26T11:30:15.610Z,34.61
2022-08-26T11:40:34.033Z,33.84
2022-08-26T11:50:36.609Z,33.62
2022-08-26T12:00:52.543Z,33.27
2022-08-26T12:11:09.793Z,32.89
2022-08-26T12:21:16.379Z,32.43
2022-08-26T12:31:34.784Z,32.04
2022-08-26T12:41:58.674Z,31.81
2022-08-26T12:52:01.451Z,31.44
2022-08-26T13:02:03.512Z,31.32
2022-08-26T13:12:06.078Z,31.40
2022-08-26T13:22:12.688Z,31.37
2022-08-26T13:32:14.924Z,31.28
2022-08-26T13:42:17.456Z,31.06
2022-08-26T13:52:30.645Z,30.77
2022-08-26T14:02:33.253Z,30.41
2022-08-26T14:12:35.356Z,29.90
2022-08-26T14:22:43.749Z,29.44
2022-08-26T14:32:59.913Z,29.04
2022-08-26T14:43:02.686Z,28.83
2022-08-26T14:53:24.728Z,28.72
2022-08-26T15:03:28.122Z,28.72
2022-08-26T15:13:30.687Z,28.67
2022-08-26T15:23:33.439Z,28.73
2022-08-26T15:33:38.392Z,28.76
2022-08-26T15:43:40.442Z,28.71
2022-08-26T15:53:47.575Z,28.60
2022-08-26T16:03:51.760Z,28.39
2022-08-26T16:13:53.746Z,28.14
2022-08-26T16:23:57.574Z,27.90
2022-08-26T16:33:59.599Z,27.56
2022-08-26T16:44:01.654Z,27.15
2022-08-26T16:54:04.223Z,26.74
2022-08-26T17:04:09.143Z,26.38
2022-08-26T17:14:11.285Z,25.97
2022-08-26T17:24:14.968Z,25.45
2022-08-26T17:34:17.370Z,24.87
2022-08-26T17:44:19.505Z,24.29
2022-08-26T17:54:22.055Z,23.76
2022-08-26T18:04:24.628Z,23.22
2022-08-26T18:14:27.303Z,24.74
2022-08-26T18:24:32.442Z,25.38
2022-08-26T18:34:36.265Z,23.67
2022-08-26T18:44:38.479Z,24.78
2022-08-26T18:54:40.771Z,25.28
2022-08-26T19:04:43.072Z,23.27
2022-08-26T19:14:47.919Z,24.15
2022-08-26T19:24:55.233Z,25.93
2022-08-26T19:35:13.320Z,25.12
2022-08-26T19:45:25.046Z,22.87
2022-08-26T19:55:30.073Z,23.50
2022-08-26T20:05:38.557Z,25.46
2022-08-26T20:15:41.326Z,24.64
2022-08-26T20:25:43.677Z,22.29
2022-08-26T20:35:46.638Z,23.12
2022-08-26T20:45:48.822Z,25.01
2022-08-26T20:55:53.809Z,24.12
2022-08-26T21:05:55.940Z,21.82
2022-08-26T21:15:59.380Z,20.59
2022-08-26T21:26:06.737Z,21.95
2022-08-26T21:36:11.796Z,24.20
2022-08-26T21:46:17.643Z,23.48
2022-08-26T21:56:21.468Z,21.19
2022-08-26T22:06:26.504Z,22.12
2022-08-26T22:16:28.919Z,24.06
2022-08-26T22:26:32.846Z,23.16
2022-08-26T22:36:36.160Z,20.89
2022-08-26T22:46:46.156Z,21.71
2022-08-26T22:56:48.831Z,23.70
2022-08-26T23:06:50.820Z,22.82
2022-08-26T23:16:53.270Z,20.51
2022-08-26T23:26:55.481Z,21.33
2022-08-26T23:36:59.029Z,23.52
2022-08-26T23:47:03.479Z,22.62
2022-08-26T23:57:06.044Z,20.19
